sensor_id;sensor_type;location;lat;lon;timestamp;temperature;humidity
41985;DHT22;28319;48.116;10.818;2023-02-15T00:03:19;1.30;99.90
41985;DHT22;28319;48.116;10.818;2023-02-15T00:08:23;1.20;99.90
41985;DHT22;28319;48.116;10.818;2023-02-15T00:13:25;1.10;99.90
41985;DHT22;28319;48.116;10.818;2023-02-15T00:18:27;1.10;99.90
41985;DHT22;28319;48.116;10.818;2023-02-15T00:23:30;1.00;99.90
41985;DHT22;28319;48.116;10.818;2023-02-15T00:28:32;1.10;99.90
41985;DHT22;28319;48.116;10.818;2023-02-15T00:33:34;0.90;99.90
41985;DHT22;28319;48.116;10.818;2023-02-15T00:38:38;0.90;99.90
41985;DHT22;28319;48.116;10.818;2023-02-15T00:43:40;0.80;99.90
41985;DHT22;28319;48.116;10.818;2023-02-15T00:48:44;2.10;99.90
41985;DHT22;28319;48.116;10.818;2023-02-15T00:53:49;0.80;99.90
41985;DHT22;28319;48.116;10.818;2023-02-15T00:58:51;1.00;99.90
41985;DHT22;28319;48.116;10.818;2023-02-15T01:03:53;0.90;99.90
41985;DHT22;28319;48.116;10.818;2023-02-15T01:08:56;0.80;99.90
41985;DHT22;28319;48.116;10.818;2023-02-15T01:13:59;0.90;99.90
41985;DHT22;28319;48.116;10.818;2023-02-15T01:19:03;0.50;99.90
41985;DHT22;28319;48.116;10.818;2023-02-15T01:24:12;0.70;99.90
41985;DHT22;28319;48.116;10.818;2023-02-15T01:29:14;0.50;99.90
41985;DHT22;28319;48.116;10.818;2023-02-15T01:34:16;0.50;99.90
41985;DHT22;28319;48.116;10.818;2023-02-15T01:39:20;0.40;99.90
41985;DHT22;28319;48.116;10.818;2023-02-15T01:44:45;0.50;99.90
41985;DHT22;28319;48.116;10.818;2023-02-15T01:49:48;0.50;99.90
41985;DHT22;28319;48.116;10.818;2023-02-15T01:54:55;0.50;99.90
41985;DHT22;28319;48.116;10.818;2023-02-15T02:00:01;0.60;99.90
41985;DHT22;28319;48.116;10.818;2023-02-15T02:05:05;0.60;99.90
41985;DHT22;28319;48.116;10.818;2023-02-15T02:10:12;0.50;99.90
41985;DHT22;28319;48.116;10.818;2023-02-15T02:15:15;0.40;99.90
41985;DHT22;28319;48.116;10.818;2023-02-15T02:20:43;0.40;99.90
41985;DHT22;28319;48.116;10.818;2023-02-15T02:31:43;0.20;99.90
41985;DHT22;28319;48.116;10.818;2023-02-15T02:36:52;0.20;99.90
41985;DHT22;28319;48.116;10.818;2023-02-15T02:42:01;0.30;99.90
41985;DHT22;28319;48.116;10.818;2023-02-15T02:47:10;0.10;99.90
41985;DHT22;28319;48.116;10.818;2023-02-15T02:52:37;0.20;99.90
41985;DHT22;28319;48.116;10.818;2023-02-15T02:57:43;0.10;99.90
41985;DHT22;28319;48.116;10.818;2023-02-15T03:02:49;0.10;99.90
41985;DHT22;28319;48.116;10.818;2023-02-15T03:07:55;0.10;99.90
41985;DHT22;28319;48.116;10.818;2023-02-15T03:12:58;0.00;99.90
41985;DHT22;28319;48.116;10.818;2023-02-15T03:18:02;0.10;99.90
41985;DHT22;28319;48.116;10.818;2023-02-15T03:23:08;-0.10;99.90
41985;DHT22;28319;48.116;10.818;2023-02-15T03:28:15;0.10;99.90
41985;DHT22;28319;48.116;10.818;2023-02-15T03:33:19;-0.30;99.90
41985;DHT22;28319;48.116;10.818;2023-02-15T03:38:28;-0.30;99.90
41985;DHT22;28319;48.116;10.818;2023-02-15T03:43:37;-0.60;99.90
41985;DHT22;28319;48.116;10.818;2023-02-15T03:48:44;-0.40;99.90
41985;DHT22;28319;48.116;10.818;2023-02-15T03:53:49;-0.20;99.90
41985;DHT22;28319;48.116;10.818;2023-02-15T03:58:52;-0.20;99.90
41985;DHT22;28319;48.116;10.818;2023-02-15T04:04:15;-0.40;99.90
41985;DHT22;28319;48.116;10.818;2023-02-15T04:09:21;-0.30;99.90
41985;DHT22;28319;48.116;10.818;2023-02-15T04:14:41;-0.10;99.90
41985;DHT22;28319;48.116;10.818;2023-02-15T04:20:00;-0.10;99.90
41985;DHT22;28319;48.116;10.818;2023-02-15T04:25:21;0.30;99.90
41985;DHT22;28319;48.116;10.818;2023-02-15T04:30:24;0.00;99.90
41985;DHT22;28319;48.116;10.818;2023-02-15T04:35:26;-0.30;99.90
41985;DHT22;28319;48.116;10.818;2023-02-15T04:40:30;-0.20;99.90
41985;DHT22;28319;48.116;10.818;2023-02-15T04:45:32;-0.20;99.90
41985;DHT22;28319;48.116;10.818;2023-02-15T04:50:34;-0.40;99.90
41985;DHT22;28319;48.116;10.818;2023-02-15T04:55:37;-0.60;99.90
41985;DHT22;28319;48.116;10.818;2023-02-15T05:00:39;-0.50;99.90
41985;DHT22;28319;48.116;10.818;2023-02-15T05:05:42;-0.70;99.90
41985;DHT22;28319;48.116;10.818;2023-02-15T05:10:47;-0.80;99.90
41985;DHT22;28319;48.116;10.818;2023-02-15T05:15:49;-0.60;99.90
41985;DHT22;28319;48.116;10.818;2023-02-15T05:20:51;-0.70;99.90
41985;DHT22;28319;48.116;10.818;2023-02-15T05:25:55;-0.90;99.90
41985;DHT22;28319;48.116;10.818;2023-02-15T05:31:17;-0.70;99.90
41985;DHT22;28319;48.116;10.818;2023-02-15T05:36:19;-0.70;99.90
41985;DHT22;28319;48.116;10.818;2023-02-15T05:41:23;-0.80;99.90
41985;DHT22;28319;48.116;10.818;2023-02-15T05:46:26;-0.90;99.90
41985;DHT22;28319;48.116;10.818;2023-02-15T05:51:28;-0.90;99.90
41985;DHT22;28319;48.116;10.818;2023-02-15T05:56:32;-1.00;99.90
41985;DHT22;28319;48.116;10.818;2023-02-15T06:01:35;-0.90;99.90
41985;DHT22;28319;48.116;10.818;2023-02-15T06:06:37;-0.90;99.90
41985;DHT22;28319;48.116;10.818;2023-02-15T06:11:41;-0.90;99.90
41985;DHT22;28319;48.116;10.818;2023-02-15T06:16:42;-0.90;99.90
41985;DHT22;28319;48.116;10.818;2023-02-15T06:21:45;-1.00;99.90
41985;DHT22;28319;48.116;10.818;2023-02-15T06:26:48;-0.90;99.90
41985;DHT22;28319;48.116;10.818;2023-02-15T06:31:50;-0.80;99.90
41985;DHT22;28319;48.116;10.818;2023-02-15T06:36:52;-0.80;99.90
41985;DHT22;28319;48.116;10.818;2023-02-15T06:41:55;-0.90;99.90
41985;DHT22;28319;48.116;10.818;2023-02-15T06:46:59;-0.90;99.90
41985;DHT22;28319;48.116;10.818;2023-02-15T06:52:00;-0.90;99.90
41985;DHT22;28319;48.116;10.818;2023-02-15T06:57:04;-0.90;99.90
41985;DHT22;28319;48.116;10.818;2023-02-15T07:02:06;-0.90;99.90
41985;DHT22;28319;48.116;10.818;2023-02-15T07:07:09;-1.10;99.90
41985;DHT22;28319;48.116;10.818;2023-02-15T07:12:13;-0.90;99.90
41985;DHT22;28319;48.116;10.818;2023-02-15T07:17:32;-1.00;99.90
41985;DHT22;28319;48.116;10.818;2023-02-15T07:22:35;-1.00;99.90
41985;DHT22;28319;48.116;10.818;2023-02-15T07:27:39;-1.00;99.90
41985;DHT22;28319;48.116;10.818;2023-02-15T07:32:41;-1.10;99.90
41985;DHT22;28319;48.116;10.818;2023-02-15T07:37:57;-1.00;99.90
41985;DHT22;28319;48.116;10.818;2023-02-15T07:43:00;-0.90;99.90
41985;DHT22;28319;48.116;10.818;2023-02-15T07:48:02;-1.20;99.90
41985;DHT22;28319;48.116;10.818;2023-02-15T07:53:04;-1.00;99.90
41985;DHT22;28319;48.116;10.818;2023-02-15T07:58:08;-0.90;99.90
41985;DHT22;28319;48.116;10.818;2023-02-15T08:03:10;-0.90;99.90
41985;DHT22;28319;48.116;10.818;2023-02-15T08:08:14;-0.70;99.90
41985;DHT22;28319;48.116;10.818;2023-02-15T08:13:46;-0.80;99.90
41985;DHT22;28319;48.116;10.818;2023-02-15T08:18:54;-0.70;99.90
41985;DHT22;28319;48.116;10.818;2023-02-15T08:23:58;-0.60;99.90
41985;DHT22;28319;48.116;10.818;2023-02-15T08:29:02;-0.50;99.90
41985;DHT22;28319;48.116;10.818;2023-02-15T08:34:05;-0.70;99.90
41985;DHT22;28319;48.116;10.818;2023-02-15T08:39:07;-0.50;99.90
41985;DHT22;28319;48.116;10.818;2023-02-15T08:44:11;-0.30;99.90
41985;DHT22;28319;48.116;10.818;2023-02-15T08:49:16;-0.30;99.90
41985;DHT22;28319;48.116;10.818;2023-02-15T08:54:20;-0.20;99.90
41985;DHT22;28319;48.116;10.818;2023-02-15T08:59:24;-0.20;99.90
41985;DHT22;28319;48.116;10.818;2023-02-15T09:04:27;0.00;99.90
41985;DHT22;28319;48.116;10.818;2023-02-15T09:09:29;0.30;99.90
41985;DHT22;28319;48.116;10.818;2023-02-15T09:14:34;0.40;99.90
41985;DHT22;28319;48.116;10.818;2023-02-15T09:19:37;0.60;99.90
41985;DHT22;28319;48.116;10.818;2023-02-15T09:24:39;0.90;99.90
41985;DHT22;28319;48.116;10.818;2023-02-15T09:29:43;1.10;99.90
41985;DHT22;28319;48.116;10.818;2023-02-15T09:34:45;1.20;99.90
41985;DHT22;28319;48.116;10.818;2023-02-15T09:39:47;1.50;99.90
41985;DHT22;28319;48.116;10.818;2023-02-15T09:45:08;1.90;99.90
41985;DHT22;28319;48.116;10.818;2023-02-15T09:50:20;2.20;99.90
41985;DHT22;28319;48.116;10.818;2023-02-15T09:55:45;2.70;99.90
41985;DHT22;28319;48.116;10.818;2023-02-15T10:00:57;3.00;99.90
41985;DHT22;28319;48.116;10.818;2023-02-15T10:06:13;3.40;99.90
41985;DHT22;28319;48.116;10.818;2023-02-15T10:11:27;3.60;99.90
41985;DHT22;28319;48.116;10.818;2023-02-15T10:16:50;4.00;99.90
41985;DHT22;28319;48.116;10.818;2023-02-15T10:21:59;4.30;99.90
41985;DHT22;28319;48.116;10.818;2023-02-15T10:27:09;4.60;99.90
41985;DHT22;28319;48.116;10.818;2023-02-15T10:32:22;5.00;99.90
41985;DHT22;28319;48.116;10.818;2023-02-15T10:37:46;5.40;99.90
41985;DHT22;28319;48.116;10.818;2023-02-15T10:43:06;5.60;99.90
41985;DHT22;28319;48.116;10.818;2023-02-15T10:54:12;6.00;99.90
41985;DHT22;28319;48.116;10.818;2023-02-15T10:59:32;6.20;99.90
41985;DHT22;28319;48.116;10.818;2023-02-15T11:10:24;6.90;99.90
41985;DHT22;28319;48.116;10.818;2023-02-15T11:15:31;7.20;99.90
41985;DHT22;28319;48.116;10.818;2023-02-15T11:20:38;7.70;99.90
41985;DHT22;28319;48.116;10.818;2023-02-15T11:25:55;7.90;99.90
41985;DHT22;28319;48.116;10.818;2023-02-15T11:31:00;8.20;99.90
41985;DHT22;28319;48.116;10.818;2023-02-15T11:36:07;8.50;99.90
41985;DHT22;28319;48.116;10.818;2023-02-15T11:41:14;8.50;99.90
41985;DHT22;28319;48.116;10.818;2023-02-15T11:46:19;8.80;99.90
41985;DHT22;28319;48.116;10.818;2023-02-15T11:51:22;9.20;99.90
41985;DHT22;28319;48.116;10.818;2023-02-15T11:56:26;9.30;99.90
41985;DHT22;28319;48.116;10.818;2023-02-15T12:01:31;9.60;99.90
41985;DHT22;28319;48.116;10.818;2023-02-15T12:06:37;10.00;99.90
41985;DHT22;28319;48.116;10.818;2023-02-15T12:11:41;10.10;99.90
41985;DHT22;28319;48.116;10.818;2023-02-15T12:16:45;10.50;99.90
41985;DHT22;28319;48.116;10.818;2023-02-15T12:21:51;10.70;99.90
41985;DHT22;28319;48.116;10.818;2023-02-15T12:27:01;10.90;99.90
41985;DHT22;28319;48.116;10.818;2023-02-15T12:32:04;11.10;99.90
41985;DHT22;28319;48.116;10.818;2023-02-15T12:37:16;11.30;99.90
41985;DHT22;28319;48.116;10.818;2023-02-15T12:42:20;11.40;99.90
41985;DHT22;28319;48.116;10.818;2023-02-15T12:47:24;11.50;99.90
41985;DHT22;28319;48.116;10.818;2023-02-15T12:52:27;11.80;99.90
41985;DHT22;28319;48.116;10.818;2023-02-15T12:57:32;12.00;99.90
41985;DHT22;28319;48.116;10.818;2023-02-15T13:02:40;11.90;99.90
41985;DHT22;28319;48.116;10.818;2023-02-15T13:07:45;12.10;99.90
41985;DHT22;28319;48.116;10.818;2023-02-15T13:12:49;11.60;99.90
41985;DHT22;28319;48.116;10.818;2023-02-15T13:17:55;11.50;99.90
41985;DHT22;28319;48.116;10.818;2023-02-15T13:23:01;11.70;99.90
41985;DHT22;28319;48.116;10.818;2023-02-15T13:28:12;11.90;99.90
41985;DHT22;28319;48.116;10.818;2023-02-15T13:33:21;12.20;99.90
41985;DHT22;28319;48.116;10.818;2023-02-15T13:38:46;12.00;99.90
41985;DHT22;28319;48.116;10.818;2023-02-15T13:44:00;11.80;99.90
41985;DHT22;28319;48.116;10.818;2023-02-15T13:49:13;11.80;99.90
41985;DHT22;28319;48.116;10.818;2023-02-15T13:54:42;12.00;99.00
41985;DHT22;28319;48.116;10.818;2023-02-15T13:59:57;12.20;99.90
41985;DHT22;28319;48.116;10.818;2023-02-15T14:05:15;12.10;99.40
41985;DHT22;28319;48.116;10.818;2023-02-15T14:10:29;12.00;99.80
41985;DHT22;28319;48.116;10.818;2023-02-15T14:15:41;12.00;99.80
41985;DHT22;28319;48.116;10.818;2023-02-15T14:20:56;12.00;99.90
41985;DHT22;28319;48.116;10.818;2023-02-15T14:26:03;11.90;99.90
41985;DHT22;28319;48.116;10.818;2023-02-15T14:31:11;12.00;99.70
41985;DHT22;28319;48.116;10.818;2023-02-15T14:36:16;11.70;99.90
41985;DHT22;28319;48.116;10.818;2023-02-15T14:41:23;11.80;99.90
41985;DHT22;28319;48.116;10.818;2023-02-15T14:46:31;11.80;99.90
41985;DHT22;28319;48.116;10.818;2023-02-15T14:51:56;11.70;99.90
41985;DHT22;28319;48.116;10.818;2023-02-15T14:57:26;11.70;99.90
41985;DHT22;28319;48.116;10.818;2023-02-15T15:02:42;11.60;99.90
41985;DHT22;28319;48.116;10.818;2023-02-15T15:07:48;11.40;99.90
41985;DHT22;28319;48.116;10.818;2023-02-15T15:12:52;11.20;99.90
41985;DHT22;28319;48.116;10.818;2023-02-15T15:17:58;11.10;99.90
41985;DHT22;28319;48.116;10.818;2023-02-15T15:23:38;10.80;99.90
41985;DHT22;28319;48.116;10.818;2023-02-15T15:28:54;10.60;99.90
41985;DHT22;28319;48.116;10.818;2023-02-15T15:34:20;10.40;99.90
41985;DHT22;28319;48.116;10.818;2023-02-15T15:51:05;9.80;99.90
41985;DHT22;28319;48.116;10.818;2023-02-15T15:56:24;9.60;99.90
41985;DHT22;28319;48.116;10.818;2023-02-15T16:08:44;9.20;99.90
41985;DHT22;28319;48.116;10.818;2023-02-15T16:16:36;9.10;99.90
41985;DHT22;28319;48.116;10.818;2023-02-15T16:20:27;8.80;99.90
41985;DHT22;28319;48.116;10.818;2023-02-15T16:43:44;8.90;99.90
41985;DHT22;28319;48.116;10.818;2023-02-15T16:48:51;9.10;99.90
41985;DHT22;28319;48.116;10.818;2023-02-15T16:53:55;9.00;99.90
41985;DHT22;28319;48.116;10.818;2023-02-15T16:59:00;9.00;99.90
41985;DHT22;28319;48.116;10.818;2023-02-15T17:04:21;9.00;99.90
41985;DHT22;28319;48.116;10.818;2023-02-15T17:09:26;8.90;99.90
41985;DHT22;28319;48.116;10.818;2023-02-15T17:14:37;8.90;99.90
41985;DHT22;28319;48.116;10.818;2023-02-15T17:19:47;8.70;99.90
41985;DHT22;28319;48.116;10.818;2023-02-15T17:24:58;8.50;99.90
41985;DHT22;28319;48.116;10.818;2023-02-15T17:30:05;8.50;99.90
41985;DHT22;28319;48.116;10.818;2023-02-15T17:35:18;8.20;99.90
41985;DHT22;28319;48.116;10.818;2023-02-15T17:40:23;8.00;99.90
41985;DHT22;28319;48.116;10.818;2023-02-15T17:45:31;7.90;99.90
41985;DHT22;28319;48.116;10.818;2023-02-15T17:50:35;7.80;99.90
41985;DHT22;28319;48.116;10.818;2023-02-15T17:55:37;7.60;99.90
41985;DHT22;28319;48.116;10.818;2023-02-15T18:00:45;7.30;99.90
41985;DHT22;28319;48.116;10.818;2023-02-15T18:06:06;7.20;99.90
41985;DHT22;28319;48.116;10.818;2023-02-15T18:11:25;6.90;99.90
41985;DHT22;28319;48.116;10.818;2023-02-15T18:16:42;6.60;99.90
41985;DHT22;28319;48.116;10.818;2023-02-15T18:21:45;6.60;99.90
41985;DHT22;28319;48.116;10.818;2023-02-15T18:26:48;6.50;99.90
41985;DHT22;28319;48.116;10.818;2023-02-15T18:31:53;6.40;99.90
41985;DHT22;28319;48.116;10.818;2023-02-15T18:36:56;6.30;99.90
41985;DHT22;28319;48.116;10.818;2023-02-15T18:41:59;6.10;99.90
41985;DHT22;28319;48.116;10.818;2023-02-15T18:47:03;5.90;99.90
41985;DHT22;28319;48.116;10.818;2023-02-15T18:52:08;5.80;99.90
41985;DHT22;28319;48.116;10.818;2023-02-15T18:57:13;5.90;99.90
41985;DHT22;28319;48.116;10.818;2023-02-15T19:02:18;6.00;99.90
41985;DHT22;28319;48.116;10.818;2023-02-15T19:07:24;5.90;99.90
41985;DHT22;28319;48.116;10.818;2023-02-15T19:12:27;5.70;99.90
41985;DHT22;28319;48.116;10.818;2023-02-15T19:17:31;5.50;99.90
41985;DHT22;28319;48.116;10.818;2023-02-15T19:22:33;5.40;99.90
41985;DHT22;28319;48.116;10.818;2023-02-15T19:27:35;5.10;99.90
41985;DHT22;28319;48.116;10.818;2023-02-15T19:32:40;5.00;99.90
41985;DHT22;28319;48.116;10.818;2023-02-15T19:37:44;4.90;99.90
41985;DHT22;28319;48.116;10.818;2023-02-15T19:42:47;4.80;99.90
41985;DHT22;28319;48.116;10.818;2023-02-15T19:47:51;4.70;99.90
41985;DHT22;28319;48.116;10.818;2023-02-15T19:52:54;4.60;99.90
41985;DHT22;28319;48.116;10.818;2023-02-15T19:57:58;4.60;99.90
41985;DHT22;28319;48.116;10.818;2023-02-15T20:03:02;4.60;99.90
41985;DHT22;28319;48.116;10.818;2023-02-15T20:08:05;4.50;99.90
41985;DHT22;28319;48.116;10.818;2023-02-15T20:13:12;4.30;99.90
41985;DHT22;28319;48.116;10.818;2023-02-15T20:18:16;4.40;99.90
41985;DHT22;28319;48.116;10.818;2023-02-15T20:23:19;4.50;99.90
41985;DHT22;28319;48.116;10.818;2023-02-15T20:28:24;4.40;99.90
41985;DHT22;28319;48.116;10.818;2023-02-15T20:33:27;4.30;99.90
41985;DHT22;28319;48.116;10.818;2023-02-15T20:38:30;4.30;99.90
41985;DHT22;28319;48.116;10.818;2023-02-15T20:43:33;4.10;99.90
41985;DHT22;28319;48.116;10.818;2023-02-15T20:48:37;4.00;99.90
41985;DHT22;28319;48.116;10.818;2023-02-15T20:53:39;4.00;99.90
41985;DHT22;28319;48.116;10.818;2023-02-15T20:58:41;4.00;99.90
41985;DHT22;28319;48.116;10.818;2023-02-15T21:03:45;3.80;99.90
41985;DHT22;28319;48.116;10.818;2023-02-15T21:08:47;3.60;99.90
41985;DHT22;28319;48.116;10.818;2023-02-15T21:13:50;3.50;99.90
41985;DHT22;28319;48.116;10.818;2023-02-15T21:18:53;3.40;99.90
41985;DHT22;28319;48.116;10.818;2023-02-15T21:23:55;3.40;99.90
41985;DHT22;28319;48.116;10.818;2023-02-15T21:28:57;3.50;99.90
41985;DHT22;28319;48.116;10.818;2023-02-15T21:34:01;3.50;99.90
41985;DHT22;28319;48.116;10.818;2023-02-15T21:39:03;3.50;99.90
41985;DHT22;28319;48.116;10.818;2023-02-15T21:44:14;3.40;99.90
41985;DHT22;28319;48.116;10.818;2023-02-15T21:49:35;3.20;99.90
41985;DHT22;28319;48.116;10.818;2023-02-15T21:54:37;3.10;99.90
41985;DHT22;28319;48.116;10.818;2023-02-15T21:59:40;3.10;99.90
41985;DHT22;28319;48.116;10.818;2023-02-15T22:04:44;2.90;99.90
41985;DHT22;28319;48.116;10.818;2023-02-15T22:09:46;2.70;99.90
41985;DHT22;28319;48.116;10.818;2023-02-15T22:14:51;2.80;99.90
41985;DHT22;28319;48.116;10.818;2023-02-15T22:19:54;2.80;99.90
41985;DHT22;28319;48.116;10.818;2023-02-15T22:24:57;2.80;99.90
41985;DHT22;28319;48.116;10.818;2023-02-15T22:29:59;2.70;99.90
41985;DHT22;28319;48.116;10.818;2023-02-15T22:35:03;2.70;99.90
41985;DHT22;28319;48.116;10.818;2023-02-15T22:40:09;2.70;99.90
41985;DHT22;28319;48.116;10.818;2023-02-15T22:45:16;2.60;99.90
41985;DHT22;28319;48.116;10.818;2023-02-15T22:50:22;2.60;99.90
41985;DHT22;28319;48.116;10.818;2023-02-15T22:55:28;2.60;99.90
41985;DHT22;28319;48.116;10.818;2023-02-15T23:00:37;2.60;99.90
41985;DHT22;28319;48.116;10.818;2023-02-15T23:05:42;2.60;99.90
41985;DHT22;28319;48.116;10.818;2023-02-15T23:10:45;2.60;99.90
41985;DHT22;28319;48.116;10.818;2023-02-15T23:15:50;2.50;99.90
41985;DHT22;28319;48.116;10.818;2023-02-15T23:20:56;2.50;99.90
41985;DHT22;28319;48.116;10.818;2023-02-15T23:25:59;2.30;99.90
41985;DHT22;28319;48.116;10.818;2023-02-15T23:31:01;2.30;99.90
41985;DHT22;28319;48.116;10.818;2023-02-15T23:36:07;2.30;99.90
41985;DHT22;28319;48.116;10.818;2023-02-15T23:41:10;2.40;99.90
41985;DHT22;28319;48.116;10.818;2023-02-15T23:46:25;2.30;99.90
41985;DHT22;28319;48.116;10.818;2023-02-15T23:51:31;2.20;99.90
41985;DHT22;28319;48.116;10.818;2023-02-15T23:56:33;2.10;99.90
